sensor_id;sensor_type;location;lat;lon;timestamp;pressure;altitude;pressure_sealevel;temperature;humidity
3598;BME280;1813;52.016;8.714;2023-09-19T00:00:07;-16261.94;;;-139.71;82.45
3598;BME280;1813;52.016;8.714;2023-09-19T00:02:43;-16261.94;;;-139.71;82.45
3598;BME280;1813;52.016;8.714;2023-09-19T00:05:18;-16261.94;;;-139.71;82.56
3598;BME280;1813;52.016;8.714;2023-09-19T00:07:55;-16261.94;;;-139.71;82.69
3598;BME280;1813;52.016;8.714;2023-09-19T00:10:30;-16261.94;;;-139.71;82.94
3598;BME280;1813;52.016;8.714;2023-09-19T00:13:09;-16261.94;;;-139.71;82.91
3598;BME280;1813;52.016;8.714;2023-09-19T00:15:45;-16261.94;;;-139.71;83.29
3598;BME280;1813;52.016;8.714;2023-09-19T00:18:21;-16261.94;;;-139.71;83.26
3598;BME280;1813;52.016;8.714;2023-09-19T00:20:59;-16261.94;;;-139.71;83.42
3598;BME280;1813;52.016;8.714;2023-09-19T00:23:35;-16261.94;;;-139.71;83.52
3598;BME280;1813;52.016;8.714;2023-09-19T00:26:09;-16261.94;;;-139.71;83.41
3598;BME280;1813;52.016;8.714;2023-09-19T00:28:46;-16261.94;;;-139.71;83.39
3598;BME280;1813;52.016;8.714;2023-09-19T00:31:20;-16261.94;;;-139.71;83.82
3598;BME280;1813;52.016;8.714;2023-09-19T00:33:56;-16261.94;;;-139.71;83.74
3598;BME280;1813;52.016;8.714;2023-09-19T00:36:40;-16261.94;;;-139.71;84.13
3598;BME280;1813;52.016;8.714;2023-09-19T00:39:14;-16261.94;;;-139.71;83.97
3598;BME280;1813;52.016;8.714;2023-09-19T00:41:51;-16261.94;;;-139.71;84.04
3598;BME280;1813;52.016;8.714;2023-09-19T00:44:28;-16261.94;;;-139.71;84.08
3598;BME280;1813;52.016;8.714;2023-09-19T00:47:01;-16261.94;;;-139.71;84.01
3598;BME280;1813;52.016;8.714;2023-09-19T00:49:35;-16261.94;;;-139.71;83.81
3598;BME280;1813;52.016;8.714;2023-09-19T00:52:10;-16261.94;;;-139.71;83.93
3598;BME280;1813;52.016;8.714;2023-09-19T00:54:45;-16261.94;;;-139.71;83.91
3598;BME280;1813;52.016;8.714;2023-09-19T00:57:19;-16261.94;;;-139.71;83.57
3598;BME280;1813;52.016;8.714;2023-09-19T00:59:56;-16261.94;;;-139.71;83.51
3598;BME280;1813;52.016;8.714;2023-09-19T01:02:31;-16261.94;;;-139.71;83.37
3598;BME280;1813;52.016;8.714;2023-09-19T01:05:05;-16261.94;;;-139.71;83.01
3598;BME280;1813;52.016;8.714;2023-09-19T01:07:39;-16261.94;;;-139.71;83.09
3598;BME280;1813;52.016;8.714;2023-09-19T01:10:18;-16261.94;;;-139.71;83.07
3598;BME280;1813;52.016;8.714;2023-09-19T01:12:59;-16261.94;;;-139.71;83.26
3598;BME280;1813;52.016;8.714;2023-09-19T01:15:48;-16261.94;;;-139.71;83.08
3598;BME280;1813;52.016;8.714;2023-09-19T01:18:39;-16261.94;;;-139.71;83.04
3598;BME280;1813;52.016;8.714;2023-09-19T01:21:22;-16261.94;;;-139.71;83.23
3598;BME280;1813;52.016;8.714;2023-09-19T01:24:11;-16261.94;;;-139.71;83.04
3598;BME280;1813;52.016;8.714;2023-09-19T01:27:17;-16261.94;;;-139.71;82.81
3598;BME280;1813;52.016;8.714;2023-09-19T01:30:09;-16261.94;;;-139.71;82.71
3598;BME280;1813;52.016;8.714;2023-09-19T01:32:43;-16261.94;;;-139.71;82.19
3598;BME280;1813;52.016;8.714;2023-09-19T01:35:17;-16261.94;;;-139.71;82.02
3598;BME280;1813;52.016;8.714;2023-09-19T01:37:51;-16261.94;;;-139.71;81.39
3598;BME280;1813;52.016;8.714;2023-09-19T01:40:26;-16261.94;;;-139.71;80.92
3598;BME280;1813;52.016;8.714;2023-09-19T01:43:09;-16261.94;;;-139.71;80.39
3598;BME280;1813;52.016;8.714;2023-09-19T01:45:52;-16261.94;;;-139.71;80.41
3598;BME280;1813;52.016;8.714;2023-09-19T01:48:37;-16261.94;;;-139.71;80.27
3598;BME280;1813;52.016;8.714;2023-09-19T01:51:18;-16261.94;;;-139.71;80.45
3598;BME280;1813;52.016;8.714;2023-09-19T01:53:55;-16261.94;;;-139.71;80.22
3598;BME280;1813;52.016;8.714;2023-09-19T01:56:40;-16261.94;;;-139.71;80.10
3598;BME280;1813;52.016;8.714;2023-09-19T01:59:22;-16261.94;;;-139.71;80.27
3598;BME280;1813;52.016;8.714;2023-09-19T02:02:01;-16261.94;;;-139.71;79.97
3598;BME280;1813;52.016;8.714;2023-09-19T02:04:36;-16261.94;;;-139.71;79.60
3598;BME280;1813;52.016;8.714;2023-09-19T02:07:10;-16261.94;;;-139.71;79.38
3598;BME280;1813;52.016;8.714;2023-09-19T02:09:46;-16261.94;;;-139.71;79.53
3598;BME280;1813;52.016;8.714;2023-09-19T02:12:20;-16261.94;;;-139.71;79.13
3598;BME280;1813;52.016;8.714;2023-09-19T02:14:54;-16261.94;;;-139.71;78.91
3598;BME280;1813;52.016;8.714;2023-09-19T02:17:30;-16261.94;;;-139.71;78.58
3598;BME280;1813;52.016;8.714;2023-09-19T02:20:05;-16261.94;;;-139.71;78.66
3598;BME280;1813;52.016;8.714;2023-09-19T02:22:45;-16261.94;;;-139.71;78.51
3598;BME280;1813;52.016;8.714;2023-09-19T02:25:21;-16261.94;;;-139.71;78.31
3598;BME280;1813;52.016;8.714;2023-09-19T02:27:54;-16261.94;;;-139.71;77.93
3598;BME280;1813;52.016;8.714;2023-09-19T02:30:29;-16261.94;;;-139.71;77.36
3598;BME280;1813;52.016;8.714;2023-09-19T02:33:06;-16261.94;;;-139.71;77.27
3598;BME280;1813;52.016;8.714;2023-09-19T02:35:40;-16261.94;;;-139.71;77.21
3598;BME280;1813;52.016;8.714;2023-09-19T02:38:14;-16261.94;;;-139.71;77.27
3598;BME280;1813;52.016;8.714;2023-09-19T02:40:52;-16261.94;;;-139.71;77.08
3598;BME280;1813;52.016;8.714;2023-09-19T02:43:26;-16261.94;;;-139.71;77.03
3598;BME280;1813;52.016;8.714;2023-09-19T02:45:59;-16261.94;;;-139.71;76.88
3598;BME280;1813;52.016;8.714;2023-09-19T02:48:36;-16261.94;;;-139.71;76.77
3598;BME280;1813;52.016;8.714;2023-09-19T02:51:10;-16261.94;;;-139.71;76.33
3598;BME280;1813;52.016;8.714;2023-09-19T02:53:44;-16261.94;;;-139.71;76.20
3598;BME280;1813;52.016;8.714;2023-09-19T02:56:18;-16261.94;;;-139.71;76.04
3598;BME280;1813;52.016;8.714;2023-09-19T02:58:53;-16261.94;;;-139.71;76.09
3598;BME280;1813;52.016;8.714;2023-09-19T03:01:27;-16261.94;;;-139.71;75.96
3598;BME280;1813;52.016;8.714;2023-09-19T03:04:04;-16261.94;;;-139.71;75.88
3598;BME280;1813;52.016;8.714;2023-09-19T03:06:40;-16261.94;;;-139.71;75.92
3598;BME280;1813;52.016;8.714;2023-09-19T03:09:15;-16261.94;;;-139.71;75.82
3598;BME280;1813;52.016;8.714;2023-09-19T03:11:50;-16261.94;;;-139.71;75.82
3598;BME280;1813;52.016;8.714;2023-09-19T03:14:25;-16261.94;;;-139.71;75.81
3598;BME280;1813;52.016;8.714;2023-09-19T03:17:03;-16261.94;;;-139.71;75.56
3598;BME280;1813;52.016;8.714;2023-09-19T03:19:41;-16261.94;;;-139.71;75.78
3598;BME280;1813;52.016;8.714;2023-09-19T03:22:16;-16261.94;;;-139.71;75.74
3598;BME280;1813;52.016;8.714;2023-09-19T03:24:51;-16261.94;;;-139.71;75.60
3598;BME280;1813;52.016;8.714;2023-09-19T03:27:26;-16261.94;;;-139.71;75.85
3598;BME280;1813;52.016;8.714;2023-09-19T03:29:58;-16261.94;;;-139.71;76.00
3598;BME280;1813;52.016;8.714;2023-09-19T03:32:32;-16261.94;;;-139.71;76.26
3598;BME280;1813;52.016;8.714;2023-09-19T03:35:09;-16261.94;;;-139.71;76.11
3598;BME280;1813;52.016;8.714;2023-09-19T03:37:45;-16261.94;;;-139.71;75.89
3598;BME280;1813;52.016;8.714;2023-09-19T03:40:19;-16261.94;;;-139.71;75.56
3598;BME280;1813;52.016;8.714;2023-09-19T03:42:54;-16261.94;;;-139.71;75.40
3598;BME280;1813;52.016;8.714;2023-09-19T03:45:28;-16261.94;;;-139.71;75.38
3598;BME280;1813;52.016;8.714;2023-09-19T03:48:08;-16261.94;;;-139.71;75.56
3598;BME280;1813;52.016;8.714;2023-09-19T03:50:45;-16261.94;;;-139.71;75.11
3598;BME280;1813;52.016;8.714;2023-09-19T03:53:19;-16261.94;;;-139.71;75.26
3598;BME280;1813;52.016;8.714;2023-09-19T03:55:53;-16261.94;;;-139.71;75.17
3598;BME280;1813;52.016;8.714;2023-09-19T03:58:27;-16261.94;;;-139.71;75.21
3598;BME280;1813;52.016;8.714;2023-09-19T04:01:01;-16261.94;;;-139.71;74.93
3598;BME280;1813;52.016;8.714;2023-09-19T04:03:35;-16261.94;;;-139.71;75.28
3598;BME280;1813;52.016;8.714;2023-09-19T04:06:19;-16261.94;;;-139.71;75.26
3598;BME280;1813;52.016;8.714;2023-09-19T04:08:53;-16261.94;;;-139.71;75.18
3598;BME280;1813;52.016;8.714;2023-09-19T04:11:28;-16261.94;;;-139.71;75.22
3598;BME280;1813;52.016;8.714;2023-09-19T04:14:03;-16261.94;;;-139.71;75.04
3598;BME280;1813;52.016;8.714;2023-09-19T04:16:37;-16261.94;;;-139.71;74.80
3598;BME280;1813;52.016;8.714;2023-09-19T04:19:11;-16261.94;;;-139.71;74.64
3598;BME280;1813;52.016;8.714;2023-09-19T04:21:48;-16261.94;;;-139.71;74.40
3598;BME280;1813;52.016;8.714;2023-09-19T04:24:22;-16261.94;;;-139.71;74.30
3598;BME280;1813;52.016;8.714;2023-09-19T04:26:56;-16261.94;;;-139.71;73.76
3598;BME280;1813;52.016;8.714;2023-09-19T04:29:30;-16261.94;;;-139.71;74.00
3598;BME280;1813;52.016;8.714;2023-09-19T04:32:04;-16261.94;;;-139.71;73.96
3598;BME280;1813;52.016;8.714;2023-09-19T04:34:38;-16261.94;;;-139.71;74.00
3598;BME280;1813;52.016;8.714;2023-09-19T04:37:14;-16261.94;;;-139.71;73.74
3598;BME280;1813;52.016;8.714;2023-09-19T04:39:48;-16261.94;;;-139.71;73.65
3598;BME280;1813;52.016;8.714;2023-09-19T04:42:22;-16261.94;;;-139.71;73.64
3598;BME280;1813;52.016;8.714;2023-09-19T04:44:56;-16261.94;;;-139.71;73.33
3598;BME280;1813;52.016;8.714;2023-09-19T04:47:30;-16261.94;;;-139.71;73.49
3598;BME280;1813;52.016;8.714;2023-09-19T04:50:08;-16261.94;;;-139.71;72.92
3598;BME280;1813;52.016;8.714;2023-09-19T04:52:49;-16261.94;;;-139.71;72.79
3598;BME280;1813;52.016;8.714;2023-09-19T04:55:24;-16261.94;;;-139.71;72.92
3598;BME280;1813;52.016;8.714;2023-09-19T04:57:58;-16261.94;;;-139.71;72.89
3598;BME280;1813;52.016;8.714;2023-09-19T05:00:33;-16261.94;;;-139.71;72.93
3598;BME280;1813;52.016;8.714;2023-09-19T05:03:06;-16261.94;;;-139.71;72.84
3598;BME280;1813;52.016;8.714;2023-09-19T05:05:40;-16261.94;;;-139.71;73.02
3598;BME280;1813;52.016;8.714;2023-09-19T05:08:17;-16261.94;;;-139.71;73.28
3598;BME280;1813;52.016;8.714;2023-09-19T05:10:53;-16261.94;;;-139.71;73.28
3598;BME280;1813;52.016;8.714;2023-09-19T05:13:26;-16261.94;;;-139.71;73.33
3598;BME280;1813;52.016;8.714;2023-09-19T05:16:01;-16261.94;;;-139.71;73.31
3598;BME280;1813;52.016;8.714;2023-09-19T05:18:35;-16261.94;;;-139.71;73.16
3598;BME280;1813;52.016;8.714;2023-09-19T05:21:09;-16261.94;;;-139.71;73.08
3598;BME280;1813;52.016;8.714;2023-09-19T05:23:46;-16261.94;;;-139.71;73.23
3598;BME280;1813;52.016;8.714;2023-09-19T05:26:20;-16261.94;;;-139.71;73.12
3598;BME280;1813;52.016;8.714;2023-09-19T05:28:54;-16261.94;;;-139.71;73.36
3598;BME280;1813;52.016;8.714;2023-09-19T05:31:28;-16261.94;;;-139.71;73.27
3598;BME280;1813;52.016;8.714;2023-09-19T05:34:01;-16261.94;;;-139.71;73.03
3598;BME280;1813;52.016;8.714;2023-09-19T05:36:35;-16261.94;;;-139.71;73.24
3598;BME280;1813;52.016;8.714;2023-09-19T05:39:12;-16261.94;;;-139.71;73.13
3598;BME280;1813;52.016;8.714;2023-09-19T05:41:46;-16261.94;;;-139.71;73.21
3598;BME280;1813;52.016;8.714;2023-09-19T05:44:20;-16261.94;;;-139.71;73.22
3598;BME280;1813;52.016;8.714;2023-09-19T05:46:54;-16261.94;;;-139.71;73.19
3598;BME280;1813;52.016;8.714;2023-09-19T05:49:28;-16261.94;;;-139.71;73.24
3598;BME280;1813;52.016;8.714;2023-09-19T05:52:02;-16261.94;;;-139.71;73.16
3598;BME280;1813;52.016;8.714;2023-09-19T05:54:39;-16261.94;;;-139.71;73.03
3598;BME280;1813;52.016;8.714;2023-09-19T05:57:13;-16261.94;;;-139.71;73.08
3598;BME280;1813;52.016;8.714;2023-09-19T05:59:47;-16261.94;;;-139.71;72.91
3598;BME280;1813;52.016;8.714;2023-09-19T06:02:21;-16261.94;;;-139.71;72.62
3598;BME280;1813;52.016;8.714;2023-09-19T06:04:57;-16261.94;;;-139.71;72.28
3598;BME280;1813;52.016;8.714;2023-09-19T06:07:31;-16261.94;;;-139.71;72.11
3598;BME280;1813;52.016;8.714;2023-09-19T06:10:10;-16261.94;;;-139.71;72.12
3598;BME280;1813;52.016;8.714;2023-09-19T06:12:45;-16261.94;;;-139.71;71.98
3598;BME280;1813;52.016;8.714;2023-09-19T06:15:18;-16261.94;;;-139.71;72.01
3598;BME280;1813;52.016;8.714;2023-09-19T06:17:56;-16261.94;;;-139.71;71.65
3598;BME280;1813;52.016;8.714;2023-09-19T06:20:30;-16261.94;;;-139.71;71.26
3598;BME280;1813;52.016;8.714;2023-09-19T06:23:04;-16261.94;;;-139.71;71.25
3598;BME280;1813;52.016;8.714;2023-09-19T06:25:40;-16261.94;;;-139.71;70.70
3598;BME280;1813;52.016;8.714;2023-09-19T06:28:14;-16261.94;;;-139.71;70.34
3598;BME280;1813;52.016;8.714;2023-09-19T06:30:54;-16261.94;;;-139.71;70.38
3598;BME280;1813;52.016;8.714;2023-09-19T06:33:28;-16261.94;;;-139.71;69.84
3598;BME280;1813;52.016;8.714;2023-09-19T06:36:03;-16261.94;;;-139.71;69.49
3598;BME280;1813;52.016;8.714;2023-09-19T06:38:36;-16261.94;;;-139.71;69.07
3598;BME280;1813;52.016;8.714;2023-09-19T06:41:14;-16261.94;;;-139.71;69.01
3598;BME280;1813;52.016;8.714;2023-09-19T06:43:48;-16261.94;;;-139.71;68.69
3598;BME280;1813;52.016;8.714;2023-09-19T06:46:23;-16261.94;;;-139.71;68.28
3598;BME280;1813;52.016;8.714;2023-09-19T06:49:03;-16261.94;;;-139.71;67.86
3598;BME280;1813;52.016;8.714;2023-09-19T06:51:37;-16261.94;;;-139.71;67.58
3598;BME280;1813;52.016;8.714;2023-09-19T06:54:12;-16261.94;;;-139.71;66.67
3598;BME280;1813;52.016;8.714;2023-09-19T06:56:51;-16261.94;;;-139.71;66.29
3598;BME280;1813;52.016;8.714;2023-09-19T06:59:26;-16261.94;;;-139.71;65.14
3598;BME280;1813;52.016;8.714;2023-09-19T07:01:59;-16261.94;;;-139.71;64.89
3598;BME280;1813;52.016;8.714;2023-09-19T07:04:33;-16261.94;;;-139.71;64.79
3598;BME280;1813;52.016;8.714;2023-09-19T07:07:07;-16261.94;;;-139.71;64.96
3598;BME280;1813;52.016;8.714;2023-09-19T07:09:43;-16261.94;;;-139.71;65.10
3598;BME280;1813;52.016;8.714;2023-09-19T07:12:22;-16261.94;;;-139.71;64.60
3598;BME280;1813;52.016;8.714;2023-09-19T07:14:56;-16261.94;;;-139.71;64.78
3598;BME280;1813;52.016;8.714;2023-09-19T07:17:29;-16261.94;;;-139.71;65.23
3598;BME280;1813;52.016;8.714;2023-09-19T07:20:04;-16261.94;;;-139.71;65.37
3598;BME280;1813;52.016;8.714;2023-09-19T07:22:41;-16261.94;;;-139.71;65.25
3598;BME280;1813;52.016;8.714;2023-09-19T07:25:15;-16261.94;;;-139.71;65.79
3598;BME280;1813;52.016;8.714;2023-09-19T07:27:51;-16261.94;;;-139.71;65.68
3598;BME280;1813;52.016;8.714;2023-09-19T07:30:25;-16261.94;;;-139.71;65.59
3598;BME280;1813;52.016;8.714;2023-09-19T07:32:59;-16261.94;;;-139.71;65.68
3598;BME280;1813;52.016;8.714;2023-09-19T07:35:33;-16261.94;;;-139.71;66.04
3598;BME280;1813;52.016;8.714;2023-09-19T07:38:07;-16261.94;;;-139.71;66.38
3598;BME280;1813;52.016;8.714;2023-09-19T07:40:42;-16261.94;;;-139.71;66.22
3598;BME280;1813;52.016;8.714;2023-09-19T07:43:19;-16261.94;;;-139.71;65.79
3598;BME280;1813;52.016;8.714;2023-09-19T07:45:53;-16261.94;;;-139.71;64.85
3598;BME280;1813;52.016;8.714;2023-09-19T07:48:27;-16261.94;;;-139.71;65.11
3598;BME280;1813;52.016;8.714;2023-09-19T07:51:02;-16261.94;;;-139.71;64.66
3598;BME280;1813;52.016;8.714;2023-09-19T07:53:37;-16261.94;;;-139.71;63.59
3598;BME280;1813;52.016;8.714;2023-09-19T07:56:12;-16261.94;;;-139.71;62.79
3598;BME280;1813;52.016;8.714;2023-09-19T07:58:50;-16261.94;;;-139.71;62.66
3598;BME280;1813;52.016;8.714;2023-09-19T08:01:24;-16261.94;;;-139.71;61.86
3598;BME280;1813;52.016;8.714;2023-09-19T08:03:57;-16261.94;;;-139.71;61.75
3598;BME280;1813;52.016;8.714;2023-09-19T08:06:31;-16261.94;;;-139.71;61.35
3598;BME280;1813;52.016;8.714;2023-09-19T08:09:05;-16261.94;;;-139.71;60.64
3598;BME280;1813;52.016;8.714;2023-09-19T08:11:41;-16261.94;;;-139.71;61.00
3598;BME280;1813;52.016;8.714;2023-09-19T08:14:18;-16261.94;;;-139.71;61.06
3598;BME280;1813;52.016;8.714;2023-09-19T08:16:56;-16261.94;;;-139.71;61.29
3598;BME280;1813;52.016;8.714;2023-09-19T08:19:31;-16261.94;;;-139.71;61.54
3598;BME280;1813;52.016;8.714;2023-09-19T08:22:05;-16261.94;;;-139.71;61.33
3598;BME280;1813;52.016;8.714;2023-09-19T08:24:41;-16261.94;;;-139.71;61.17
3598;BME280;1813;52.016;8.714;2023-09-19T08:27:15;-16261.94;;;-139.71;61.47
3598;BME280;1813;52.016;8.714;2023-09-19T08:29:52;-16261.94;;;-139.71;61.43
3598;BME280;1813;52.016;8.714;2023-09-19T08:32:26;-16261.94;;;-139.71;61.13
3598;BME280;1813;52.016;8.714;2023-09-19T08:35:00;-16261.94;;;-139.71;61.25
3598;BME280;1813;52.016;8.714;2023-09-19T08:37:35;-16261.94;;;-139.71;60.62
3598;BME280;1813;52.016;8.714;2023-09-19T08:40:09;-16261.94;;;-139.71;61.67
3598;BME280;1813;52.016;8.714;2023-09-19T08:42:50;-16261.94;;;-139.71;61.53
3598;BME280;1813;52.016;8.714;2023-09-19T08:45:27;-16261.94;;;-139.71;61.21
3598;BME280;1813;52.016;8.714;2023-09-19T08:48:11;-16261.94;;;-139.71;60.43
3598;BME280;1813;52.016;8.714;2023-09-19T08:50:49;-16261.94;;;-139.71;60.37
3598;BME280;1813;52.016;8.714;2023-09-19T08:53:32;-16261.94;;;-139.71;60.99
3598;BME280;1813;52.016;8.714;2023-09-19T08:56:10;-16261.94;;;-139.71;60.19
3598;BME280;1813;52.016;8.714;2023-09-19T08:58:48;-16261.94;;;-139.71;60.18
3598;BME280;1813;52.016;8.714;2023-09-19T09:01:27;-16261.94;;;-139.71;60.15
3598;BME280;1813;52.016;8.714;2023-09-19T09:04:03;-16261.94;;;-139.71;60.13
3598;BME280;1813;52.016;8.714;2023-09-19T09:06:40;-16261.94;;;-139.71;59.55
3598;BME280;1813;52.016;8.714;2023-09-19T09:09:15;-16261.94;;;-139.71;59.84
3598;BME280;1813;52.016;8.714;2023-09-19T09:11:49;-16261.94;;;-139.71;60.03
3598;BME280;1813;52.016;8.714;2023-09-19T09:14:24;-16261.94;;;-139.71;60.35
3598;BME280;1813;52.016;8.714;2023-09-19T09:17:00;-16261.94;;;-139.71;60.81
3598;BME280;1813;52.016;8.714;2023-09-19T09:19:34;-16261.94;;;-139.71;60.38
3598;BME280;1813;52.016;8.714;2023-09-19T09:22:09;-16261.94;;;-139.71;59.89
3598;BME280;1813;52.016;8.714;2023-09-19T09:24:51;-16261.94;;;-139.71;59.38
3598;BME280;1813;52.016;8.714;2023-09-19T09:27:28;-16261.94;;;-139.71;60.29
3598;BME280;1813;52.016;8.714;2023-09-19T09:30:02;-16261.94;;;-139.71;59.77
3598;BME280;1813;52.016;8.714;2023-09-19T09:32:40;-16261.94;;;-139.71;58.91
3598;BME280;1813;52.016;8.714;2023-09-19T09:35:14;-16261.94;;;-139.71;58.92
3598;BME280;1813;52.016;8.714;2023-09-19T09:37:59;-16261.94;;;-139.71;59.52
3598;BME280;1813;52.016;8.714;2023-09-19T09:40:46;-16261.94;;;-139.71;57.79
3598;BME280;1813;52.016;8.714;2023-09-19T09:43:28;-16261.94;;;-139.71;57.18
3598;BME280;1813;52.016;8.714;2023-09-19T09:46:14;-16261.94;;;-139.71;57.19
3598;BME280;1813;52.016;8.714;2023-09-19T09:49:03;-16261.94;;;-139.71;56.74
3598;BME280;1813;52.016;8.714;2023-09-19T09:52:01;-16261.94;;;-139.71;56.66
3598;BME280;1813;52.016;8.714;2023-09-19T09:54:37;-16261.94;;;-139.71;57.11
3598;BME280;1813;52.016;8.714;2023-09-19T09:57:12;-16261.94;;;-139.71;55.80
3598;BME280;1813;52.016;8.714;2023-09-19T09:59:52;-16261.94;;;-139.71;54.71
3598;BME280;1813;52.016;8.714;2023-09-19T10:02:30;-16261.94;;;-139.71;54.92
3598;BME280;1813;52.016;8.714;2023-09-19T10:05:14;-16261.94;;;-139.71;55.62
3598;BME280;1813;52.016;8.714;2023-09-19T10:07:51;-16261.94;;;-139.71;55.40
3598;BME280;1813;52.016;8.714;2023-09-19T10:10:32;-16261.94;;;-139.71;56.03
3598;BME280;1813;52.016;8.714;2023-09-19T10:13:25;-16261.94;;;-139.71;54.47
3598;BME280;1813;52.016;8.714;2023-09-19T10:16:06;-16261.94;;;-139.71;53.51
3598;BME280;1813;52.016;8.714;2023-09-19T10:18:47;-16261.94;;;-139.71;53.42
3598;BME280;1813;52.016;8.714;2023-09-19T10:21:25;-16261.94;;;-139.71;53.64
3598;BME280;1813;52.016;8.714;2023-09-19T10:24:01;-16261.94;;;-139.71;53.97
3598;BME280;1813;52.016;8.714;2023-09-19T10:26:39;-16261.94;;;-139.71;52.86
3598;BME280;1813;52.016;8.714;2023-09-19T10:29:14;-16261.94;;;-139.71;53.09
3598;BME280;1813;52.016;8.714;2023-09-19T10:31:52;-16261.94;;;-139.71;52.12
3598;BME280;1813;52.016;8.714;2023-09-19T10:34:26;-16261.94;;;-139.71;51.71
3598;BME280;1813;52.016;8.714;2023-09-19T10:37:04;-16261.94;;;-139.71;51.69
3598;BME280;1813;52.016;8.714;2023-09-19T10:39:40;-16261.94;;;-139.71;51.73
3598;BME280;1813;52.016;8.714;2023-09-19T10:42:18;-16261.94;;;-139.71;51.25
3598;BME280;1813;52.016;8.714;2023-09-19T10:44:52;-16261.94;;;-139.71;50.50
3598;BME280;1813;52.016;8.714;2023-09-19T10:47:30;-16261.94;;;-139.71;50.38
3598;BME280;1813;52.016;8.714;2023-09-19T10:50:06;-16261.94;;;-139.71;50.82
3598;BME280;1813;52.016;8.714;2023-09-19T10:52:46;-16261.94;;;-139.71;50.35
3598;BME280;1813;52.016;8.714;2023-09-19T10:55:21;-16261.94;;;-139.71;51.06
3598;BME280;1813;52.016;8.714;2023-09-19T10:57:55;-16261.94;;;-139.71;51.72
3598;BME280;1813;52.016;8.714;2023-09-19T11:00:52;-16261.94;;;-139.71;51.56
3598;BME280;1813;52.016;8.714;2023-09-19T11:03:26;-16261.94;;;-139.71;51.53
3598;BME280;1813;52.016;8.714;2023-09-19T11:06:12;-16261.94;;;-139.71;50.99
3598;BME280;1813;52.016;8.714;2023-09-19T11:09:00;-16261.94;;;-139.71;50.90
3598;BME280;1813;52.016;8.714;2023-09-19T11:11:50;-16261.94;;;-139.71;50.72
3598;BME280;1813;52.016;8.714;2023-09-19T11:14:38;-16261.94;;;-139.71;49.50
3598;BME280;1813;52.016;8.714;2023-09-19T11:20:24;-16261.94;;;-139.71;49.17
3598;BME280;1813;52.016;8.714;2023-09-19T11:23:23;-16261.94;;;-139.71;48.67
3598;BME280;1813;52.016;8.714;2023-09-19T11:26:00;-16261.94;;;-139.71;48.71
3598;BME280;1813;52.016;8.714;2023-09-19T11:28:35;-16261.94;;;-139.71;49.72
3598;BME280;1813;52.016;8.714;2023-09-19T11:34:45;-16261.94;;;-139.71;49.63
3598;BME280;1813;52.016;8.714;2023-09-19T11:40:45;-16261.94;;;-139.71;48.52
3598;BME280;1813;52.016;8.714;2023-09-19T11:43:31;-16261.94;;;-139.71;48.86
3598;BME280;1813;52.016;8.714;2023-09-19T11:46:06;-16261.94;;;-139.71;48.32
3598;BME280;1813;52.016;8.714;2023-09-19T11:48:40;-16261.94;;;-139.71;48.08
3598;BME280;1813;52.016;8.714;2023-09-19T11:51:19;-16261.94;;;-139.71;48.21
3598;BME280;1813;52.016;8.714;2023-09-19T11:53:55;-16261.94;;;-139.71;48.12
3598;BME280;1813;52.016;8.714;2023-09-19T11:56:30;-16261.94;;;-139.71;46.76
3598;BME280;1813;52.016;8.714;2023-09-19T11:59:07;-16261.94;;;-139.71;45.69
3598;BME280;1813;52.016;8.714;2023-09-19T12:01:43;-16261.94;;;-139.71;45.60
3598;BME280;1813;52.016;8.714;2023-09-19T12:04:35;-16261.94;;;-139.71;46.02
3598;BME280;1813;52.016;8.714;2023-09-19T12:07:11;-16261.94;;;-139.71;46.34
3598;BME280;1813;52.016;8.714;2023-09-19T12:09:47;-16261.94;;;-139.71;46.03
3598;BME280;1813;52.016;8.714;2023-09-19T12:12:23;-16261.94;;;-139.71;45.97
3598;BME280;1813;52.016;8.714;2023-09-19T12:15:00;-16261.94;;;-139.71;46.08
3598;BME280;1813;52.016;8.714;2023-09-19T12:17:38;-16261.94;;;-139.71;45.96
3598;BME280;1813;52.016;8.714;2023-09-19T12:20:13;-16261.94;;;-139.71;46.46
3598;BME280;1813;52.016;8.714;2023-09-19T12:22:47;-16261.94;;;-139.71;46.42
3598;BME280;1813;52.016;8.714;2023-09-19T12:25:21;-16261.94;;;-139.71;45.89
3598;BME280;1813;52.016;8.714;2023-09-19T12:27:55;-16261.94;;;-139.71;46.09
3598;BME280;1813;52.016;8.714;2023-09-19T12:30:36;-16261.94;;;-139.71;45.67
3598;BME280;1813;52.016;8.714;2023-09-19T12:33:20;-16261.94;;;-139.71;46.27
3598;BME280;1813;52.016;8.714;2023-09-19T12:35:56;-16261.94;;;-139.71;46.27
3598;BME280;1813;52.016;8.714;2023-09-19T12:38:30;-16261.94;;;-139.71;46.63
3598;BME280;1813;52.016;8.714;2023-09-19T12:41:06;-16261.94;;;-139.71;46.65
3598;BME280;1813;52.016;8.714;2023-09-19T12:43:40;-16261.94;;;-139.71;46.39
3598;BME280;1813;52.016;8.714;2023-09-19T12:46:19;-16261.94;;;-139.71;46.00
3598;BME280;1813;52.016;8.714;2023-09-19T12:49:17;-16261.94;;;-139.71;45.40
3598;BME280;1813;52.016;8.714;2023-09-19T12:51:54;-16261.94;;;-139.71;44.71
3598;BME280;1813;52.016;8.714;2023-09-19T12:54:38;-16261.94;;;-139.71;44.37
3598;BME280;1813;52.016;8.714;2023-09-19T12:57:23;-16261.94;;;-139.71;45.57
3598;BME280;1813;52.016;8.714;2023-09-19T12:59:57;-16261.94;;;-139.71;45.02
3598;BME280;1813;52.016;8.714;2023-09-19T13:02:33;-16261.94;;;-139.71;43.90
3598;BME280;1813;52.016;8.714;2023-09-19T13:05:07;-16261.94;;;-139.71;43.74
3598;BME280;1813;52.016;8.714;2023-09-19T13:07:42;-16261.94;;;-139.71;44.07
3598;BME280;1813;52.016;8.714;2023-09-19T13:10:17;-16261.94;;;-139.71;44.80
3598;BME280;1813;52.016;8.714;2023-09-19T13:12:55;-16261.94;;;-139.71;43.31
3598;BME280;1813;52.016;8.714;2023-09-19T13:15:28;-16261.94;;;-139.71;42.29
3598;BME280;1813;52.016;8.714;2023-09-19T13:18:25;-16261.94;;;-139.71;41.92
3598;BME280;1813;52.016;8.714;2023-09-19T13:21:07;-16261.94;;;-139.71;42.11
3598;BME280;1813;52.016;8.714;2023-09-19T13:23:43;-16261.94;;;-139.71;42.15
3598;BME280;1813;52.016;8.714;2023-09-19T13:26:17;-16261.94;;;-139.71;42.69
3598;BME280;1813;52.016;8.714;2023-09-19T13:28:51;-16261.94;;;-139.71;41.99
3598;BME280;1813;52.016;8.714;2023-09-19T13:31:24;-16261.94;;;-139.71;41.72
3598;BME280;1813;52.016;8.714;2023-09-19T13:34:01;-16261.94;;;-139.71;42.36
3598;BME280;1813;52.016;8.714;2023-09-19T13:36:34;-16261.94;;;-139.71;42.59
3598;BME280;1813;52.016;8.714;2023-09-19T13:39:08;-16261.94;;;-139.71;42.16
3598;BME280;1813;52.016;8.714;2023-09-19T13:41:44;-16261.94;;;-139.71;42.52
3598;BME280;1813;52.016;8.714;2023-09-19T13:44:18;-16261.94;;;-139.71;42.06
3598;BME280;1813;52.016;8.714;2023-09-19T13:46:52;-16261.94;;;-139.71;41.15
3598;BME280;1813;52.016;8.714;2023-09-19T13:49:30;-16261.94;;;-139.71;41.28